sensor_id;sensor_type;location;lat;lon;timestamp;pressure;altitude;pressure_sealevel;temperature;humidity
40918;BME280;26644;50.248;19.032;2023-05-29T00:00:19;98314.91;;;12.71;62.74
40918;BME280;26644;50.248;19.032;2023-05-29T00:03:27;98322.38;;;12.70;63.47
40918;BME280;26644;50.248;19.032;2023-05-29T00:06:34;98314.78;;;12.62;63.93
40918;BME280;26644;50.248;19.032;2023-05-29T00:09:39;98312.88;;;12.57;64.28
40918;BME280;26644;50.248;19.032;2023-05-29T00:12:44;98307.75;;;12.51;64.40
40918;BME280;26644;50.248;19.032;2023-05-29T00:15:49;98305.84;;;12.51;63.45
40918;BME280;26644;50.248;19.032;2023-05-29T00:18:57;98312.38;;;12.55;63.20
40918;BME280;26644;50.248;19.032;2023-05-29T00:22:01;98304.63;;;12.57;63.88
40918;BME280;26644;50.248;19.032;2023-05-29T00:25:07;98300.53;;;12.55;64.05
40918;BME280;26644;50.248;19.032;2023-05-29T00:28:12;98302.97;;;12.56;64.33
40918;BME280;26644;50.248;19.032;2023-05-29T00:31:17;98295.75;;;12.41;64.76
40918;BME280;26644;50.248;19.032;2023-05-29T00:34:24;98299.97;;;12.34;65.10
40918;BME280;26644;50.248;19.032;2023-05-29T00:37:30;98283.31;;;12.25;64.63
40918;BME280;26644;50.248;19.032;2023-05-29T00:40:34;98283.00;;;12.26;63.92
40918;BME280;26644;50.248;19.032;2023-05-29T00:43:39;98291.72;;;12.34;63.06
40918;BME280;26644;50.248;19.032;2023-05-29T00:46:44;98298.50;;;12.41;62.80
40918;BME280;26644;50.248;19.032;2023-05-29T00:49:53;98291.66;;;12.39;62.51
40918;BME280;26644;50.248;19.032;2023-05-29T00:53:01;98296.59;;;12.42;62.96
40918;BME280;26644;50.248;19.032;2023-05-29T00:56:09;98296.28;;;12.43;63.55
40918;BME280;26644;50.248;19.032;2023-05-29T00:59:15;98294.66;;;12.42;63.92
40918;BME280;26644;50.248;19.032;2023-05-29T01:02:23;98299.41;;;12.37;64.07
40918;BME280;26644;50.248;19.032;2023-05-29T01:05:33;98299.97;;;12.34;63.65
40918;BME280;26644;50.248;19.032;2023-05-29T01:08:39;98290.38;;;12.31;63.99
40918;BME280;26644;50.248;19.032;2023-05-29T01:11:53;98278.31;;;12.27;64.48
40918;BME280;26644;50.248;19.032;2023-05-29T01:15:20;98280.84;;;12.23;64.20
40918;BME280;26644;50.248;19.032;2023-05-29T01:18:39;98294.81;;;12.27;63.87
40918;BME280;26644;50.248;19.032;2023-05-29T01:22:08;98284.53;;;12.14;64.60
40918;BME280;26644;50.248;19.032;2023-05-29T01:25:21;98277.22;;;12.04;64.38
40918;BME280;26644;50.248;19.032;2023-05-29T01:28:42;98285.69;;;12.07;63.69
40918;BME280;26644;50.248;19.032;2023-05-29T01:31:52;98292.53;;;12.10;64.56
40918;BME280;26644;50.248;19.032;2023-05-29T01:34:58;98286.34;;;11.99;65.15
40918;BME280;26644;50.248;19.032;2023-05-29T01:38:02;98286.66;;;11.92;65.61
40918;BME280;26644;50.248;19.032;2023-05-29T01:41:09;98276.00;;;11.86;66.00
40918;BME280;26644;50.248;19.032;2023-05-29T01:44:19;98282.69;;;11.80;65.96
40918;BME280;26644;50.248;19.032;2023-05-29T01:47:26;98282.16;;;11.77;66.29
40918;BME280;26644;50.248;19.032;2023-05-29T01:50:32;98276.19;;;11.70;66.08
40918;BME280;26644;50.248;19.032;2023-05-29T01:53:38;98290.19;;;11.69;66.60
40918;BME280;26644;50.248;19.032;2023-05-29T01:56:46;98280.94;;;11.59;66.76
40918;BME280;26644;50.248;19.032;2023-05-29T01:59:55;98279.13;;;11.50;67.41
40918;BME280;26644;50.248;19.032;2023-05-29T02:03:01;98275.91;;;11.42;67.41
40918;BME280;26644;50.248;19.032;2023-05-29T02:06:05;98274.81;;;11.38;67.78
40918;BME280;26644;50.248;19.032;2023-05-29T02:09:12;98271.00;;;11.34;67.76
40918;BME280;26644;50.248;19.032;2023-05-29T02:12:17;98264.16;;;11.32;67.51
40918;BME280;26644;50.248;19.032;2023-05-29T02:15:25;98263.38;;;11.26;67.25
40918;BME280;26644;50.248;19.032;2023-05-29T02:18:30;98259.31;;;11.18;67.75
40918;BME280;26644;50.248;19.032;2023-05-29T02:21:39;98249.84;;;11.05;68.05
40918;BME280;26644;50.248;19.032;2023-05-29T02:24:43;98261.06;;;11.09;68.12
40918;BME280;26644;50.248;19.032;2023-05-29T02:27:49;98266.84;;;11.07;68.22
40918;BME280;26644;50.248;19.032;2023-05-29T02:30:56;98272.91;;;11.04;68.05
40918;BME280;26644;50.248;19.032;2023-05-29T02:34:01;98259.81;;;10.96;67.83
40918;BME280;26644;50.248;19.032;2023-05-29T02:37:05;98258.63;;;11.02;68.17
40918;BME280;26644;50.248;19.032;2023-05-29T02:40:11;98266.06;;;11.02;67.99
40918;BME280;26644;50.248;19.032;2023-05-29T02:43:15;98268.56;;;10.98;67.99
40918;BME280;26644;50.248;19.032;2023-05-29T02:46:23;98260.06;;;10.94;67.82
40918;BME280;26644;50.248;19.032;2023-05-29T02:49:28;98243.63;;;10.89;68.14
40918;BME280;26644;50.248;19.032;2023-05-29T02:52:33;98255.94;;;10.92;68.36
40918;BME280;26644;50.248;19.032;2023-05-29T02:55:38;98257.09;;;10.91;68.64
40918;BME280;26644;50.248;19.032;2023-05-29T02:58:44;98249.09;;;10.89;68.78
40918;BME280;26644;50.248;19.032;2023-05-29T03:01:51;98235.97;;;10.86;68.57
40918;BME280;26644;50.248;19.032;2023-05-29T03:04:57;98243.53;;;11.00;68.50
40918;BME280;26644;50.248;19.032;2023-05-29T03:08:02;98243.75;;;11.08;68.36
40918;BME280;26644;50.248;19.032;2023-05-29T03:11:07;98232.50;;;11.05;67.94
40918;BME280;26644;50.248;19.032;2023-05-29T03:14:13;98252.50;;;11.10;68.29
40918;BME280;26644;50.248;19.032;2023-05-29T03:17:21;98248.38;;;11.13;67.84
40918;BME280;26644;50.248;19.032;2023-05-29T03:20:26;98257.16;;;11.15;68.26
40918;BME280;26644;50.248;19.032;2023-05-29T03:23:34;98261.25;;;11.18;68.31
40918;BME280;26644;50.248;19.032;2023-05-29T03:26:38;98257.13;;;11.20;68.44
40918;BME280;26644;50.248;19.032;2023-05-29T03:29:45;98231.41;;;11.06;68.51
40918;BME280;26644;50.248;19.032;2023-05-29T03:32:52;98257.03;;;11.31;68.22
40918;BME280;26644;50.248;19.032;2023-05-29T03:36:09;98251.47;;;11.36;68.46
40918;BME280;26644;50.248;19.032;2023-05-29T03:39:14;98255.81;;;11.42;68.05
40918;BME280;26644;50.248;19.032;2023-05-29T03:42:22;98256.53;;;11.53;67.66
40918;BME280;26644;50.248;19.032;2023-05-29T03:45:27;98261.13;;;11.63;66.91
40918;BME280;26644;50.248;19.032;2023-05-29T03:48:37;98261.91;;;11.68;66.41
40918;BME280;26644;50.248;19.032;2023-05-29T03:51:41;98264.59;;;11.73;66.46
40918;BME280;26644;50.248;19.032;2023-05-29T03:54:46;98261.16;;;11.87;66.43
40918;BME280;26644;50.248;19.032;2023-05-29T03:57:52;98259.13;;;11.98;65.67
40918;BME280;26644;50.248;19.032;2023-05-29T04:00:57;98252.59;;;12.13;65.58
40918;BME280;26644;50.248;19.032;2023-05-29T04:04:06;98259.28;;;12.50;64.79
40918;BME280;26644;50.248;19.032;2023-05-29T04:07:12;98264.16;;;12.77;64.47
40918;BME280;26644;50.248;19.032;2023-05-29T04:10:18;98257.03;;;13.09;63.24
40918;BME280;26644;50.248;19.032;2023-05-29T04:13:24;98277.47;;;13.60;61.04
40918;BME280;26644;50.248;19.032;2023-05-29T04:16:28;98279.16;;;14.03;59.56
40918;BME280;26644;50.248;19.032;2023-05-29T04:19:36;98272.09;;;14.38;57.39
40918;BME280;26644;50.248;19.032;2023-05-29T04:22:41;98277.66;;;14.75;56.38
40918;BME280;26644;50.248;19.032;2023-05-29T04:25:46;98288.59;;;15.17;55.86
40918;BME280;26644;50.248;19.032;2023-05-29T04:28:58;98289.38;;;15.54;54.46
40918;BME280;26644;50.248;19.032;2023-05-29T04:32:04;98293.44;;;15.88;53.69
40918;BME280;26644;50.248;19.032;2023-05-29T04:35:12;98282.16;;;16.16;52.66
40918;BME280;26644;50.248;19.032;2023-05-29T04:38:26;98290.94;;;16.49;51.31
40918;BME280;26644;50.248;19.032;2023-05-29T04:41:32;98293.28;;;16.82;50.84
40918;BME280;26644;50.248;19.032;2023-05-29T04:44:41;98295.59;;;17.06;50.23
40918;BME280;26644;50.248;19.032;2023-05-29T04:47:45;98297.88;;;17.31;49.36
40918;BME280;26644;50.248;19.032;2023-05-29T04:50:54;98300.81;;;17.60;48.48
40918;BME280;26644;50.248;19.032;2023-05-29T04:54:04;98305.97;;;17.88;48.37
40918;BME280;26644;50.248;19.032;2023-05-29T04:57:11;98314.50;;;18.22;47.14
40918;BME280;26644;50.248;19.032;2023-05-29T05:00:17;98313.06;;;18.54;45.89
40918;BME280;26644;50.248;19.032;2023-05-29T05:03:23;98311.19;;;18.67;45.34
40918;BME280;26644;50.248;19.032;2023-05-29T05:06:31;98321.28;;;19.02;44.30
40918;BME280;26644;50.248;19.032;2023-05-29T05:09:36;98320.75;;;19.30;43.23
40918;BME280;26644;50.248;19.032;2023-05-29T05:15:52;98322.06;;;19.66;42.38
40918;BME280;26644;50.248;19.032;2023-05-29T05:18:57;98322.00;;;19.87;42.63
40918;BME280;26644;50.248;19.032;2023-05-29T05:22:05;98323.84;;;20.16;41.60
40918;BME280;26644;50.248;19.032;2023-05-29T05:25:09;98315.50;;;20.41;41.11
40918;BME280;26644;50.248;19.032;2023-05-29T05:28:15;98323.06;;;20.78;40.14
40918;BME280;26644;50.248;19.032;2023-05-29T05:31:19;98325.34;;;20.88;38.95
40918;BME280;26644;50.248;19.032;2023-05-29T05:34:24;98327.47;;;21.03;38.93
40918;BME280;26644;50.248;19.032;2023-05-29T05:37:31;98324.50;;;21.24;38.27
40918;BME280;26644;50.248;19.032;2023-05-29T05:40:37;98331.78;;;21.41;38.23
40918;BME280;26644;50.248;19.032;2023-05-29T05:43:49;98331.34;;;21.68;38.14
40918;BME280;26644;50.248;19.032;2023-05-29T05:47:04;98337.28;;;21.95;37.38
40918;BME280;26644;50.248;19.032;2023-05-29T05:50:09;98327.91;;;22.19;36.84
40918;BME280;26644;50.248;19.032;2023-05-29T05:53:17;98340.50;;;22.57;36.53
40918;BME280;26644;50.248;19.032;2023-05-29T05:56:22;98335.63;;;22.89;35.91
40918;BME280;26644;50.248;19.032;2023-05-29T05:59:28;98337.03;;;23.15;36.02
40918;BME280;26644;50.248;19.032;2023-05-29T06:02:32;98343.94;;;23.57;35.14
40918;BME280;26644;50.248;19.032;2023-05-29T06:05:37;98343.38;;;23.90;34.36
40918;BME280;26644;50.248;19.032;2023-05-29T06:08:46;98350.88;;;24.26;33.63
40918;BME280;26644;50.248;19.032;2023-05-29T06:11:52;98359.25;;;24.45;33.38
40918;BME280;26644;50.248;19.032;2023-05-29T06:14:57;98349.25;;;24.48;33.67
40918;BME280;26644;50.248;19.032;2023-05-29T06:18:04;98357.19;;;24.65;33.44
40918;BME280;26644;50.248;19.032;2023-05-29T06:21:09;98357.53;;;24.87;32.86
40918;BME280;26644;50.248;19.032;2023-05-29T06:24:23;98366.97;;;25.29;32.40
40918;BME280;26644;50.248;19.032;2023-05-29T06:27:31;98372.25;;;25.61;31.81
40918;BME280;26644;50.248;19.032;2023-05-29T06:30:39;98376.97;;;25.87;31.55
40918;BME280;26644;50.248;19.032;2023-05-29T06:33:44;98373.59;;;26.04;31.60
40918;BME280;26644;50.248;19.032;2023-05-29T06:36:50;98367.31;;;26.22;31.36
40918;BME280;26644;50.248;19.032;2023-05-29T06:39:57;98369.84;;;26.31;31.42
40918;BME280;26644;50.248;19.032;2023-05-29T06:43:02;98376.56;;;26.64;30.56
40918;BME280;26644;50.248;19.032;2023-05-29T06:46:14;98380.72;;;26.77;30.44
40918;BME280;26644;50.248;19.032;2023-05-29T06:49:20;98382.34;;;26.82;30.94
40918;BME280;26644;50.248;19.032;2023-05-29T06:52:24;98389.38;;;27.06;30.21
40918;BME280;26644;50.248;19.032;2023-05-29T06:55:51;98380.69;;;27.26;29.80
40918;BME280;26644;50.248;19.032;2023-05-29T06:58:56;98397.69;;;27.44;29.33
40918;BME280;26644;50.248;19.032;2023-05-29T07:02:04;98391.28;;;27.50;29.33
40918;BME280;26644;50.248;19.032;2023-05-29T07:05:09;98389.38;;;27.69;29.08
40918;BME280;26644;50.248;19.032;2023-05-29T07:08:15;98398.25;;;27.82;29.32
40918;BME280;26644;50.248;19.032;2023-05-29T07:11:22;98395.56;;;28.03;28.47
40918;BME280;26644;50.248;19.032;2023-05-29T07:14:27;98403.25;;;28.21;27.98
40918;BME280;26644;50.248;19.032;2023-05-29T07:17:32;98396.41;;;28.18;27.82
40918;BME280;26644;50.248;19.032;2023-05-29T07:20:51;98408.16;;;28.35;28.18
40918;BME280;26644;50.248;19.032;2023-05-29T07:23:56;98414.66;;;28.64;28.12
40918;BME280;26644;50.248;19.032;2023-05-29T07:27:04;98412.66;;;28.94;27.17
40918;BME280;26644;50.248;19.032;2023-05-29T07:30:11;98412.22;;;29.02;26.63
40918;BME280;26644;50.248;19.032;2023-05-29T07:33:19;98414.63;;;29.36;26.66
40918;BME280;26644;50.248;19.032;2023-05-29T07:36:28;98404.50;;;29.53;25.94
40918;BME280;26644;50.248;19.032;2023-05-29T07:39:36;98406.38;;;29.96;25.58
40918;BME280;26644;50.248;19.032;2023-05-29T07:43:03;98420.00;;;30.30;25.26
40918;BME280;26644;50.248;19.032;2023-05-29T07:46:21;98422.03;;;30.19;24.80
40918;BME280;26644;50.248;19.032;2023-05-29T07:49:32;98422.09;;;30.04;25.86
40918;BME280;26644;50.248;19.032;2023-05-29T07:52:38;98418.84;;;30.13;25.12
40918;BME280;26644;50.248;19.032;2023-05-29T07:55:42;98420.00;;;30.23;25.41
40918;BME280;26644;50.248;19.032;2023-05-29T07:58:50;98410.28;;;30.28;25.02
40918;BME280;26644;50.248;19.032;2023-05-29T08:01:56;98419.84;;;30.48;24.72
40918;BME280;26644;50.248;19.032;2023-05-29T08:05:19;98422.66;;;30.56;24.03
40918;BME280;26644;50.248;19.032;2023-05-29T08:08:25;98418.38;;;30.29;23.74
40918;BME280;26644;50.248;19.032;2023-05-29T08:11:31;98424.03;;;30.33;24.23
40918;BME280;26644;50.248;19.032;2023-05-29T08:14:38;98420.28;;;30.47;24.19
40918;BME280;26644;50.248;19.032;2023-05-29T08:17:43;98422.69;;;30.48;24.20
40918;BME280;26644;50.248;19.032;2023-05-29T08:20:48;98423.19;;;30.36;23.71
40918;BME280;26644;50.248;19.032;2023-05-29T08:23:54;98418.22;;;30.51;23.71
40918;BME280;26644;50.248;19.032;2023-05-29T08:26:58;98422.03;;;30.26;23.87
40918;BME280;26644;50.248;19.032;2023-05-29T08:30:08;98427.72;;;30.23;23.99
40918;BME280;26644;50.248;19.032;2023-05-29T08:33:14;98421.94;;;30.41;23.98
40918;BME280;26644;50.248;19.032;2023-05-29T08:36:19;98415.34;;;30.58;23.90
40918;BME280;26644;50.248;19.032;2023-05-29T08:39:24;98425.19;;;30.99;22.71
40918;BME280;26644;50.248;19.032;2023-05-29T08:42:33;98417.47;;;31.03;22.36
40918;BME280;26644;50.248;19.032;2023-05-29T08:45:49;98431.50;;;31.17;22.28
40918;BME280;26644;50.248;19.032;2023-05-29T08:49:00;98425.31;;;31.33;22.16
40918;BME280;26644;50.248;19.032;2023-05-29T08:52:09;98399.19;;;31.08;22.27
40918;BME280;26644;50.248;19.032;2023-05-29T08:55:18;98424.03;;;30.93;21.30
40918;BME280;26644;50.248;19.032;2023-05-29T08:58:26;98424.13;;;30.82;21.69
40918;BME280;26644;50.248;19.032;2023-05-29T09:01:34;98415.88;;;30.98;21.57
40918;BME280;26644;50.248;19.032;2023-05-29T09:04:41;98414.41;;;30.79;21.13
40918;BME280;26644;50.248;19.032;2023-05-29T09:07:47;98419.75;;;30.66;21.58
40918;BME280;26644;50.248;19.032;2023-05-29T09:10:52;98418.50;;;30.71;22.14
40918;BME280;26644;50.248;19.032;2023-05-29T09:13:57;98421.84;;;31.08;21.51
40918;BME280;26644;50.248;19.032;2023-05-29T09:17:07;98426.41;;;31.43;20.75
40918;BME280;26644;50.248;19.032;2023-05-29T09:20:17;98423.59;;;31.40;20.68
40918;BME280;26644;50.248;19.032;2023-05-29T09:23:26;98415.81;;;31.06;21.48
40918;BME280;26644;50.248;19.032;2023-05-29T09:26:31;98412.78;;;30.82;21.52
40918;BME280;26644;50.248;19.032;2023-05-29T09:29:38;98415.50;;;30.96;22.29
40918;BME280;26644;50.248;19.032;2023-05-29T09:32:53;98423.91;;;31.07;21.26
40918;BME280;26644;50.248;19.032;2023-05-29T09:35:59;98419.00;;;31.11;21.35
40918;BME280;26644;50.248;19.032;2023-05-29T09:39:04;98414.19;;;31.08;21.27
40918;BME280;26644;50.248;19.032;2023-05-29T09:42:10;98421.75;;;31.18;21.62
40918;BME280;26644;50.248;19.032;2023-05-29T09:45:17;98425.13;;;31.48;21.28
40918;BME280;26644;50.248;19.032;2023-05-29T09:48:26;98420.63;;;31.54;21.04
40918;BME280;26644;50.248;19.032;2023-05-29T09:51:31;98421.94;;;31.46;21.39
40918;BME280;26644;50.248;19.032;2023-05-29T09:54:38;98418.06;;;31.63;21.20
40918;BME280;26644;50.248;19.032;2023-05-29T09:57:46;98417.19;;;31.70;20.83
40918;BME280;26644;50.248;19.032;2023-05-29T10:00:52;98410.28;;;31.71;20.59
40918;BME280;26644;50.248;19.032;2023-05-29T10:04:02;98417.75;;;31.92;21.12
40918;BME280;26644;50.248;19.032;2023-05-29T10:07:10;98412.22;;;31.78;21.16
40918;BME280;26644;50.248;19.032;2023-05-29T10:10:25;98416.53;;;31.93;20.90
40918;BME280;26644;50.248;19.032;2023-05-29T10:13:35;98410.72;;;32.04;20.20
40918;BME280;26644;50.248;19.032;2023-05-29T10:16:47;98413.28;;;31.95;20.46
40918;BME280;26644;50.248;19.032;2023-05-29T10:19:56;98404.94;;;31.77;21.31
40918;BME280;26644;50.248;19.032;2023-05-29T10:23:06;98402.47;;;31.02;21.83
40918;BME280;26644;50.248;19.032;2023-05-29T10:26:18;98402.97;;;30.94;22.25
40918;BME280;26644;50.248;19.032;2023-05-29T10:29:31;98412.34;;;31.29;22.12
40918;BME280;26644;50.248;19.032;2023-05-29T10:32:56;98412.72;;;31.34;21.66
40918;BME280;26644;50.248;19.032;2023-05-29T10:36:14;98407.47;;;31.29;21.68
40918;BME280;26644;50.248;19.032;2023-05-29T10:39:23;98409.72;;;31.07;21.77
40918;BME280;26644;50.248;19.032;2023-05-29T10:42:42;98407.56;;;30.77;21.80
40918;BME280;26644;50.248;19.032;2023-05-29T10:45:50;98406.97;;;30.36;22.53
40918;BME280;26644;50.248;19.032;2023-05-29T10:48:56;98403.16;;;29.94;23.42
40918;BME280;26644;50.248;19.032;2023-05-29T10:52:04;98393.16;;;29.61;23.53
40918;BME280;26644;50.248;19.032;2023-05-29T10:55:16;98392.84;;;29.33;23.25
40918;BME280;26644;50.248;19.032;2023-05-29T10:58:24;98383.59;;;28.82;23.23
40918;BME280;26644;50.248;19.032;2023-05-29T11:01:31;98373.84;;;28.40;25.01
40918;BME280;26644;50.248;19.032;2023-05-29T11:04:36;98364.94;;;28.02;25.47
40918;BME280;26644;50.248;19.032;2023-05-29T11:07:55;98368.00;;;27.75;26.43
40918;BME280;26644;50.248;19.032;2023-05-29T11:11:02;98361.06;;;27.47;25.72
40918;BME280;26644;50.248;19.032;2023-05-29T11:14:08;98374.97;;;27.18;26.07
40918;BME280;26644;50.248;19.032;2023-05-29T11:17:45;98369.28;;;26.59;25.81
40918;BME280;26644;50.248;19.032;2023-05-29T11:20:57;98361.50;;;26.04;26.20
40918;BME280;26644;50.248;19.032;2023-05-29T11:24:21;98355.84;;;25.66;27.63
40918;BME280;26644;50.248;19.032;2023-05-29T11:27:29;98364.47;;;25.50;28.10
40918;BME280;26644;50.248;19.032;2023-05-29T11:30:44;98365.84;;;25.33;28.77
40918;BME280;26644;50.248;19.032;2023-05-29T11:33:50;98362.72;;;25.12;28.71
40918;BME280;26644;50.248;19.032;2023-05-29T11:36:58;98366.06;;;24.94;29.40
40918;BME280;26644;50.248;19.032;2023-05-29T11:40:08;98369.47;;;24.80;29.06
40918;BME280;26644;50.248;19.032;2023-05-29T11:43:13;98362.22;;;24.56;29.60
40918;BME280;26644;50.248;19.032;2023-05-29T11:46:20;98359.78;;;24.54;29.87
40918;BME280;26644;50.248;19.032;2023-05-29T11:49:28;98361.47;;;24.59;30.33
40918;BME280;26644;50.248;19.032;2023-05-29T11:52:34;98353.25;;;24.47;29.21
40918;BME280;26644;50.248;19.032;2023-05-29T11:55:52;98348.84;;;24.22;29.64
40918;BME280;26644;50.248;19.032;2023-05-29T11:58:59;98337.66;;;24.03;29.54
40918;BME280;26644;50.248;19.032;2023-05-29T12:02:07;98341.34;;;24.07;30.00
40918;BME280;26644;50.248;19.032;2023-05-29T12:05:14;98327.91;;;23.97;29.97
40918;BME280;26644;50.248;19.032;2023-05-29T12:08:21;98335.81;;;23.91;30.27
40918;BME280;26644;50.248;19.032;2023-05-29T12:11:30;98332.84;;;23.84;30.18
40918;BME280;26644;50.248;19.032;2023-05-29T12:14:35;98331.34;;;23.67;31.01
40918;BME280;26644;50.248;19.032;2023-05-29T12:17:41;98323.34;;;23.49;31.34
40918;BME280;26644;50.248;19.032;2023-05-29T12:20:46;98326.31;;;23.37;31.48
40918;BME280;26644;50.248;19.032;2023-05-29T12:23:52;98326.34;;;23.21;31.75
40918;BME280;26644;50.248;19.032;2023-05-29T12:27:03;98307.19;;;23.03;31.78
40918;BME280;26644;50.248;19.032;2023-05-29T12:30:10;98325.22;;;23.06;31.57
40918;BME280;26644;50.248;19.032;2023-05-29T12:33:27;98318.06;;;22.89;31.35
40918;BME280;26644;50.248;19.032;2023-05-29T12:36:34;98316.69;;;22.83;32.17
40918;BME280;26644;50.248;19.032;2023-05-29T12:39:41;98316.31;;;22.84;32.00
40918;BME280;26644;50.248;19.032;2023-05-29T12:42:54;98307.94;;;22.84;31.46
40918;BME280;26644;50.248;19.032;2023-05-29T12:45:59;98307.78;;;22.77;31.63
40918;BME280;26644;50.248;19.032;2023-05-29T12:49:14;98308.16;;;22.75;32.01
40918;BME280;26644;50.248;19.032;2023-05-29T12:52:23;98306.97;;;22.77;32.18
40918;BME280;26644;50.248;19.032;2023-05-29T12:55:29;98302.47;;;22.72;31.76
40918;BME280;26644;50.248;19.032;2023-05-29T12:58:40;98297.50;;;22.65;31.59
40918;BME280;26644;50.248;19.032;2023-05-29T13:01:45;98286.59;;;22.60;31.66
40918;BME280;26644;50.248;19.032;2023-05-29T13:04:50;98297.22;;;22.70;32.02
40918;BME280;26644;50.248;19.032;2023-05-29T13:07:55;98292.63;;;22.78;31.31
40918;BME280;26644;50.248;19.032;2023-05-29T13:11:01;98287.41;;;22.77;31.24
40918;BME280;26644;50.248;19.032;2023-05-29T13:14:09;98294.97;;;22.76;31.40
40918;BME280;26644;50.248;19.032;2023-05-29T13:17:13;98285.66;;;22.72;31.63
40918;BME280;26644;50.248;19.032;2023-05-29T13:20:19;98276.25;;;22.80;31.92
40918;BME280;26644;50.248;19.032;2023-05-29T13:23:25;98270.28;;;22.82;31.48
40918;BME280;26644;50.248;19.032;2023-05-29T13:26:30;98281.19;;;22.87;31.04
40918;BME280;26644;50.248;19.032;2023-05-29T13:29:37;98268.69;;;22.81;30.98
40918;BME280;26644;50.248;19.032;2023-05-29T13:32:43;98259.41;;;22.77;31.77
40918;BME280;26644;50.248;19.032;2023-05-29T13:35:47;98255.69;;;22.72;32.00
40918;BME280;26644;50.248;19.032;2023-05-29T13:38:53;98251.72;;;22.73;32.72
40918;BME280;26644;50.248;19.032;2023-05-29T13:41:57;98265.16;;;22.84;32.53
40918;BME280;26644;50.248;19.032;2023-05-29T13:45:07;98250.41;;;22.87;32.55
40918;BME280;26644;50.248;19.032;2023-05-29T13:48:13;98259.56;;;22.84;31.39
40918;BME280;26644;50.248;19.032;2023-05-29T13:51:18;98252.97;;;22.76;31.41
40918;BME280;26644;50.248;19.032;2023-05-29T13:54:22;98255.69;;;22.72;31.13
40918;BME280;26644;50.248;19.032;2023-05-29T13:57:29;98238.38;;;22.67;31.57
40918;BME280;26644;50.248;19.032;2023-05-29T14:00:36;98257.31;;;22.73;31.32
40918;BME280;26644;50.248;19.032;2023-05-29T14:03:41;98247.25;;;22.69;30.73
40918;BME280;26644;50.248;19.032;2023-05-29T14:06:45;98243.88;;;22.63;31.89
40918;BME280;26644;50.248;19.032;2023-05-29T14:09:50;98236.31;;;22.64;32.16
40918;BME280;26644;50.248;19.032;2023-05-29T14:12:55;98243.09;;;22.63;31.68
40918;BME280;26644;50.248;19.032;2023-05-29T14:16:02;98247.81;;;22.58;32.17
40918;BME280;26644;50.248;19.032;2023-05-29T14:19:07;98240.66;;;22.61;32.12
40918;BME280;26644;50.248;19.032;2023-05-29T14:22:12;98238.66;;;22.62;32.27
40918;BME280;26644;50.248;19.032;2023-05-29T14:25:17;98234.69;;;22.63;32.45
40918;BME280;26644;50.248;19.032;2023-05-29T14:28:22;98229.09;;;22.63;32.22
40918;BME280;26644;50.248;19.032;2023-05-29T14:31:29;98232.19;;;22.57;32.73
40918;BME280;26644;50.248;19.032;2023-05-29T14:34:34;98225.69;;;22.53;32.53
40918;BME280;26644;50.248;19.032;2023-05-29T14:37:39;98219.31;;;22.53;32.14
40918;BME280;26644;50.248;19.032;2023-05-29T14:40:44;98223.97;;;22.65;32.07
40918;BME280;26644;50.248;19.032;2023-05-29T14:43:48;98212.84;;;22.68;31.73
40918;BME280;26644;50.248;19.032;2023-05-29T14:46:56;98213.50;;;22.62;31.19
40918;BME280;26644;50.248;19.032;2023-05-29T14:50:00;98216.47;;;22.69;31.99
40918;BME280;26644;50.248;19.032;2023-05-29T14:53:05;98209.31;;;22.71;31.41
40918;BME280;26644;50.248;19.032;2023-05-29T14:56:10;98218.75;;;22.83;31.56
40918;BME280;26644;50.248;19.032;2023-05-29T14:59:15;98226.44;;;22.86;31.68
40918;BME280;26644;50.248;19.032;2023-05-29T15:02:23;98217.94;;;22.82;31.46
40918;BME280;26644;50.248;19.032;2023-05-29T15:05:28;98209.09;;;22.80;31.91
40918;BME280;26644;50.248;19.032;2023-05-29T15:08:33;98209.22;;;22.68;31.67
40918;BME280;26644;50.248;19.032;2023-05-29T15:11:38;98228.97;;;22.75;31.85
40918;BME280;26644;50.248;19.032;2023-05-29T15:14:42;98209.84;;;22.77;31.34
40918;BME280;26644;50.248;19.032;2023-05-29T15:17:51;98211.84;;;22.77;31.72
40918;BME280;26644;50.248;19.032;2023-05-29T15:20:57;98216.31;;;22.81;31.97
40918;BME280;26644;50.248;19.032;2023-05-29T15:24:03;98213.88;;;22.80;31.91
40918;BME280;26644;50.248;19.032;2023-05-29T15:27:08;98201.72;;;22.72;31.52
40918;BME280;26644;50.248;19.032;2023-05-29T15:30:15;98215.06;;;22.79;31.90
40918;BME280;26644;50.248;19.032;2023-05-29T15:33:24;98215.22;;;22.86;32.11
40918;BME280;26644;50.248;19.032;2023-05-29T15:36:30;98213.69;;;22.88;31.65
40918;BME280;26644;50.248;19.032;2023-05-29T15:39:34;98216.91;;;22.90;31.21
40918;BME280;26644;50.248;19.032;2023-05-29T15:42:40;98204.53;;;22.91;31.07
40918;BME280;26644;50.248;19.032;2023-05-29T15:45:44;98204.47;;;22.88;31.60
40918;BME280;26644;50.248;19.032;2023-05-29T15:48:53;98212.94;;;22.91;31.72
40918;BME280;26644;50.248;19.032;2023-05-29T15:51:57;98218.38;;;22.84;31.58
40918;BME280;26644;50.248;19.032;2023-05-29T15:55:03;98212.19;;;22.75;31.57
40918;BME280;26644;50.248;19.032;2023-05-29T15:58:08;98211.84;;;22.77;31.88
40918;BME280;26644;50.248;19.032;2023-05-29T16:01:14;98216.59;;;22.76;31.92
40918;BME280;26644;50.248;19.032;2023-05-29T16:04:21;98199.22;;;22.67;31.65
40918;BME280;26644;50.248;19.032;2023-05-29T16:07:26;98211.66;;;22.69;31.64
40918;BME280;26644;50.248;19.032;2023-05-29T16:10:30;98208.78;;;22.66;31.95
40918;BME280;26644;50.248;19.032;2023-05-29T16:13:35;98191.09;;;22.62;31.95
40918;BME280;26644;50.248;19.032;2023-05-29T16:16:40;98207.25;;;22.68;32.23
40918;BME280;26644;50.248;19.032;2023-05-29T16:19:48;98203.56;;;22.64;32.01
40918;BME280;26644;50.248;19.032;2023-05-29T16:22:55;98204.56;;;22.56;31.69